Terminal Aerodrome Forecast
Issued by NWS

Home | Current Version | Previous Version | Text Only | Print | Product List | Glossary On
Versions: 1 2 3 4 5 6 7 8 9 10 11 12
000
FTUS44 KJAN 251720
TAFGTR
TAF
KGTR 251720Z 2518/2618 18010KT P6SM FEW040 SCT250
     FM260000 16006KT P6SM FEW250
     FM261200 15004KT P6SM OVC100
     FM261300 16006KT P6SM BKN050
     FM261500 19005KT P6SM BKN025=

USA.gov is the U.S. government's official web portal to all federal, state and local government web resources and services.